Time;durP1;ratioP1;P1;durP2;ratioP2;P2;SDS_P1;SDS_P2;PMS_P1;PMS_P2;Temp;Humidity;BMP_temperature;BMP_pressure;BME280_temperature;BME280_humidity;BME280_pressure;Samples;Min_cycle;Max_cycle;Signal;HPM_P1;HPM_P2
2021/05/10 00:01:11;;;;;;;1.60;0.98;;;16.10;70.60;;;;;;4992620;28;20582;-74
2021/05/10 00:03:38;;;;;;;1.33;1.23;;;16.00;70.80;;;;;;4979134;28;20049;-74
2021/05/10 00:06:04;;;;;;;3.17;1.75;;;16.00;71.10;;;;;;4999460;28;20471;-74
2021/05/10 00:08:29;;;;;;;3.20;1.70;;;15.90;71.60;;;;;;4998315;28;20068;-76
2021/05/10 00:10:55;;;;;;;2.05;1.65;;;15.90;72.00;;;;;;5015444;28;20053;-69
2021/05/10 00:13:25;;;;;;;1.40;1.23;;;15.90;72.10;;;;;;4997914;28;20411;-76
2021/05/10 00:15:51;;;;;;;1.60;1.50;;;15.90;72.40;;;;;;5015628;28;20030;-76
2021/05/10 00:18:19;;;;;;;1.50;1.38;;;15.90;72.40;;;;;;5014683;28;20883;-76
2021/05/10 00:20:46;;;;;;;3.17;1.10;;;15.90;72.30;;;;;;5001679;28;20036;-75
2021/05/10 00:23:13;;;;;;;1.50;1.40;;;16.00;72.50;;;;;;4997655;28;20034;-74
2021/05/10 00:25:40;;;;;;;3.60;2.50;;;16.00;72.50;;;;;;4998092;28;20430;-75
2021/05/10 00:28:07;;;;;;;1.65;1.20;;;16.00;72.40;;;;;;4994153;28;20037;-75
2021/05/10 00:30:33;;;;;;;1.48;1.35;;;16.00;72.40;;;;;;5015337;28;20032;-76
2021/05/10 00:32:59;;;;;;;2.20;1.75;;;16.00;72.50;;;;;;5014534;28;20037;-73
2021/05/10 00:35:25;;;;;;;1.92;1.17;;;16.00;72.40;;;;;;4997831;28;20022;-74
2021/05/10 00:37:52;;;;;;;1.67;1.20;;;16.00;72.40;;;;;;5015015;28;20056;-71
2021/05/10 00:40:22;;;;;;;1.70;1.33;;;16.00;72.50;;;;;;5014893;28;20064;-75
2021/05/10 00:42:48;;;;;;;1.67;1.30;;;16.00;72.70;;;;;;4997645;28;20364;-75
2021/05/10 00:45:14;;;;;;;1.45;1.35;;;15.90;72.90;;;;;;5014166;28;21114;-75
2021/05/10 00:47:41;;;;;;;2.08;1.40;;;15.90;73.30;;;;;;5015071;28;20059;-75
2021/05/10 00:50:09;;;;;;;2.22;1.77;;;15.90;73.50;;;;;;5013808;28;20544;-75
2021/05/10 00:52:35;;;;;;;1.48;1.35;;;15.90;73.90;;;;;;4997403;28;20041;-75
2021/05/10 00:55:01;;;;;;;1.30;1.20;;;15.80;74.30;;;;;;5013913;28;20054;-74
2021/05/10 00:57:31;;;;;;;1.55;1.33;;;15.70;74.50;;;;;;5015047;28;20160;-75
2021/05/10 00:59:57;;;;;;;1.25;1.10;;;15.70;74.60;;;;;;4996743;28;20076;-68
2021/05/10 01:02:23;;;;;;;1.77;1.50;;;15.60;74.50;;;;;;5014363;28;20041;-74
2021/05/10 01:04:49;;;;;;;1.80;1.40;;;15.60;73.80;;;;;;4997308;28;20037;-75
2021/05/10 01:07:15;;;;;;;2.17;1.45;;;15.50;73.80;;;;;;5014008;28;20649;-74
2021/05/10 01:09:41;;;;;;;1.38;1.20;;;15.50;73.80;;;;;;4997110;28;20061;-75
2021/05/10 01:12:07;;;;;;;2.03;1.33;;;15.50;73.30;;;;;;5013884;28;20435;-75
2021/05/10 01:14:34;;;;;;;1.67;1.30;;;15.50;72.10;;;;;;5014392;28;20045;-74
2021/05/10 01:17:00;;;;;;;2.75;1.30;;;15.50;72.20;;;;;;5013976;28;20026;-69
2021/05/10 01:19:27;;;;;;;2.30;1.20;;;15.40;73.10;;;;;;4997117;28;20072;-74
2021/05/10 01:21:56;;;;;;;2.30;1.80;;;15.40;72.00;;;;;;5011580;28;20034;-72
2021/05/10 01:24:22;;;;;;;3.30;1.55;;;15.40;72.10;;;;;;5014043;28;20034;-75
2021/05/10 01:26:50;;;;;;;1.70;1.48;;;15.30;72.90;;;;;;5014354;28;20040;-75
2021/05/10 01:29:17;;;;;;;1.30;1.13;;;15.30;73.20;;;;;;5013577;28;20029;-75
2021/05/10 01:31:43;;;;;;;1.55;1.30;;;15.20;73.30;;;;;;4996775;28;20048;-75
2021/05/10 01:34:08;;;;;;;1.58;1.42;;;15.10;73.30;;;;;;5013315;28;20379;-76
2021/05/10 01:36:34;;;;;;;1.30;1.20;;;15.10;73.70;;;;;;5014312;28;20037;-74
2021/05/10 01:39:00;;;;;;;2.95;1.40;;;15.00;74.50;;;;;;5013499;28;20439;-67
2021/05/10 01:41:25;;;;;;;4.95;1.30;;;14.90;75.70;;;;;;4996654;28;20058;-73
2021/05/10 01:43:51;;;;;;;2.05;1.40;;;14.90;75.90;;;;;;4982495;28;20029;-75
2021/05/10 01:46:17;;;;;;;1.90;1.33;;;14.80;76.10;;;;;;4996840;28;20112;-74
2021/05/10 01:48:42;;;;;;;1.50;1.40;;;14.70;76.40;;;;;;5013742;28;20406;-74
2021/05/10 01:51:08;;;;;;;1.88;1.23;;;14.60;76.70;;;;;;5013029;28;20067;-75
2021/05/10 01:53:34;;;;;;;1.63;1.35;;;14.60;77.10;;;;;;5013770;28;20133;-74
2021/05/10 01:56:00;;;;;;;3.30;1.30;;;14.50;77.50;;;;;;5013249;28;20120;-68
2021/05/10 01:58:26;;;;;;;2.28;1.58;;;14.50;77.50;;;;;;5013762;28;20030;-74
2021/05/10 02:00:52;;;;;;;2.30;1.40;;;14.40;77.70;;;;;;5013697;28;20030;-75
2021/05/10 02:03:22;;;;;;;2.53;1.65;;;14.40;77.80;;;;;;4995407;28;20603;-74
2021/05/10 02:05:50;;;;;;;6.88;1.88;;;14.40;78.10;;;;;;5013659;28;20053;-75
2021/05/10 02:08:17;;;;;;;2.45;1.73;;;14.30;78.10;;;;;;4995219;28;20506;-75
2021/05/10 02:10:45;;;;;;;2.00;1.38;;;14.30;78.40;;;;;;4996143;28;20022;-74
2021/05/10 02:13:31;;;;;;;1.90;1.40;;;14.30;78.10;;;;;;5012752;28;20092;-75
2021/05/10 02:16:02;;;;;;;1.95;1.58;;;14.30;79.00;;;;;;5010861;28;20029;-69
2021/05/10 02:18:33;;;;;;;1.50;1.40;;;14.30;78.90;;;;;;5013200;28;20026;-74
2021/05/10 02:21:00;;;;;;;1.55;1.13;;;14.30;78.40;;;;;;4995418;28;20042;-68
2021/05/10 02:23:31;;;;;;;1.35;1.20;;;14.30;78.90;;;;;;5013111;28;20489;-74
2021/05/10 02:26:01;;;;;;;2.30;1.50;;;14.30;79.20;;;;;;5012318;28;20045;-68
2021/05/10 02:28:29;;;;;;;2.67;1.42;;;14.20;79.90;;;;;;5013042;28;20022;-73
2021/05/10 02:30:57;;;;;;;3.40;1.45;;;14.20;79.80;;;;;;4995570;28;20116;-74
2021/05/10 02:33:27;;;;;;;2.33;1.55;;;14.20;79.90;;;;;;5012794;28;20042;-75
2021/05/10 02:35:54;;;;;;;1.63;1.52;;;14.20;78.40;;;;;;5013088;28;20040;-75
2021/05/10 02:38:20;;;;;;;1.95;1.25;;;14.20;78.20;;;;;;5012304;28;20025;-75
2021/05/10 02:40:48;;;;;;;5.60;1.60;;;14.30;78.40;;;;;;5012775;28;20446;-74
2021/05/10 02:43:15;;;;;;;2.45;1.15;;;14.30;78.20;;;;;;4995135;28;20034;-74
2021/05/10 02:45:41;;;;;;;3.33;2.03;;;14.30;78.10;;;;;;5012877;28;20025;-74
2021/05/10 02:48:07;;;;;;;2.35;1.50;;;14.30;78.20;;;;;;5012564;28;20044;-73
2021/05/10 02:50:32;;;;;;;1.70;1.40;;;14.30;78.60;;;;;;5012901;28;20117;-75
2021/05/10 02:52:58;;;;;;;1.98;1.30;;;14.20;79.10;;;;;;5012295;28;20057;-69
2021/05/10 02:55:24;;;;;;;1.88;1.38;;;14.20;79.80;;;;;;5012449;28;20021;-75
2021/05/10 02:57:51;;;;;;;4.25;1.48;;;14.20;79.10;;;;;;5012514;28;20028;-75
2021/05/10 03:00:22;;;;;;;1.73;1.23;;;14.10;79.00;;;;;;4994402;28;20053;-75
2021/05/10 03:02:48;;;;;;;3.03;1.75;;;14.10;79.80;;;;;;5012971;28;20072;-75
2021/05/10 03:05:15;;;;;;;2.95;1.80;;;14.10;80.10;;;;;;4994341;28;20032;-74
2021/05/10 03:07:41;;;;;;;1.80;1.50;;;14.10;80.50;;;;;;4998059;28;20082;-75
2021/05/10 03:10:09;;;;;;;2.95;1.42;;;14.00;81.40;;;;;;4998690;28;20034;-74
2021/05/10 03:12:37;;;;;;;1.60;1.50;;;14.00;81.70;;;;;;4994794;28;20064;-75
2021/05/10 03:15:06;;;;;;;2.10;1.45;;;14.00;81.30;;;;;;5011690;28;20057;-68
2021/05/10 03:17:32;;;;;;;2.58;1.05;;;13.90;81.90;;;;;;5012346;28;20030;-74
2021/05/10 03:19:58;;;;;;;2.25;1.73;;;13.90;81.80;;;;;;5012239;28;20034;-74
2021/05/10 03:22:24;;;;;;;2.55;1.45;;;13.90;81.30;;;;;;5011456;28;20029;-75
2021/05/10 03:24:49;;;;;;;1.52;1.40;;;13.90;82.00;;;;;;4994640;28;20030;-75
2021/05/10 03:27:15;;;;;;;2.78;1.73;;;13.90;82.80;;;;;;5011655;28;20026;-75
2021/05/10 03:29:41;;;;;;;3.15;2.00;;;13.80;82.10;;;;;;4994369;28;20032;-74
2021/05/10 03:32:06;;;;;;;2.38;1.58;;;13.90;81.60;;;;;;5011581;28;20375;-74
2021/05/10 03:34:32;;;;;;;2.85;1.50;;;13.90;80.50;;;;;;5012285;28;20037;-74
2021/05/10 03:36:58;;;;;;;2.78;1.60;;;13.90;78.60;;;;;;5012072;28;20026;-75
2021/05/10 03:39:24;;;;;;;3.03;1.58;;;13.90;77.10;;;;;;5010958;28;20076;-74
2021/05/10 03:41:49;;;;;;;2.25;1.27;;;13.90;76.60;;;;;;5011908;28;20033;-75
2021/05/10 03:44:15;;;;;;;1.65;1.25;;;14.00;75.70;;;;;;5011381;28;20037;-74
2021/05/10 03:46:41;;;;;;;2.90;1.30;;;14.10;75.10;;;;;;5011813;28;20414;-75
2021/05/10 03:49:06;;;;;;;3.38;1.40;;;14.20;73.90;;;;;;4993784;28;20030;-75
2021/05/10 03:51:33;;;;;;;5.72;1.40;;;14.30;73.70;;;;;;4994261;28;20431;-75
2021/05/10 03:53:59;;;;;;;2.72;1.67;;;14.40;70.60;;;;;;4993682;28;20054;-75
2021/05/10 03:56:25;;;;;;;4.45;1.58;;;14.60;68.60;;;;;;4994050;28;20117;-75
2021/05/10 03:58:51;;;;;;;4.63;1.40;;;14.90;66.80;;;;;;5011950;28;20470;-74
2021/05/10 04:01:18;;;;;;;3.85;1.60;;;15.10;65.90;;;;;;4993571;28;20475;-75
2021/05/10 04:03:53;;;;;;;2.92;1.05;;;15.30;66.40;;;;;;5008690;28;20038;-75
2021/05/10 04:09:07;;;;;;;1.90;1.70;;;15.60;68.30;;;;;;5011880;28;20490;-75
2021/05/10 04:14:17;;;;;;;5.20;2.13;;;15.70;68.60;;;;;;5011056;28;20121;-75
2021/05/10 04:16:43;;;;;;;6.65;2.60;;;15.70;71.00;;;;;;4994174;28;20049;-74
2021/05/10 04:19:09;;;;;;;3.38;2.13;;;15.60;71.10;;;;;;4993475;28;20026;-74
2021/05/10 04:21:34;;;;;;;3.22;2.10;;;15.70;72.80;;;;;;4994144;28;20030;-75
2021/05/10 04:24:00;;;;;;;7.93;2.80;;;15.60;73.10;;;;;;4970064;28;20078;-75
2021/05/10 04:26:25;;;;;;;7.97;2.42;;;15.50;72.90;;;;;;4969686;28;20444;-74
2021/05/10 04:28:51;;;;;;;4.00;1.60;;;15.50;72.40;;;;;;4970425;28;20062;-75
2021/05/10 04:31:17;;;;;;;3.83;1.20;;;15.50;66.40;;;;;;4970300;28;20035;-73
2021/05/10 04:33:42;;;;;;;3.13;1.33;;;15.80;60.40;;;;;;4971119;28;20035;-75
2021/05/10 04:36:08;;;;;;;1.52;1.00;;;16.30;57.60;;;;;;4969583;28;20102;-75
2021/05/10 04:38:34;;;;;;;1.42;1.33;;;17.00;56.10;;;;;;4970364;28;20054;-75
2021/05/10 04:41:00;;;;;;;1.77;1.13;;;17.50;54.70;;;;;;4970030;28;20027;-75
2021/05/10 04:43:26;;;;;;;2.85;1.10;;;17.90;53.20;;;;;;4969345;28;20043;-74
2021/05/10 04:45:54;;;;;;;3.83;1.00;;;18.20;52.10;;;;;;4970175;28;20102;-75
2021/05/10 04:48:19;;;;;;;0.98;0.90;;;18.50;51.70;;;;;;4970812;28;20046;-75
2021/05/10 04:50:45;;;;;;;2.30;1.15;;;18.60;51.80;;;;;;4973710;28;20472;-75
2021/05/10 04:53:12;;;;;;;1.67;1.30;;;18.70;53.10;;;;;;4972566;28;20263;-75
2021/05/10 04:55:38;;;;;;;2.05;1.30;;;18.70;52.60;;;;;;4987919;28;20448;-73
2021/05/10 04:58:04;;;;;;;1.70;1.20;;;18.80;53.80;;;;;;5011785;28;20022;-68
2021/05/10 05:00:30;;;;;;;2.95;1.13;;;18.90;54.40;;;;;;5014274;28;20088;-74
2021/05/10 05:02:55;;;;;;;5.07;2.30;;;18.90;54.60;;;;;;4997016;28;20029;-75
2021/05/10 05:05:21;;;;;;;6.13;2.72;;;18.90;57.10;;;;;;4996465;28;20077;-75
2021/05/10 05:07:47;;;;;;;6.25;2.88;;;18.70;59.40;;;;;;4996295;28;20460;-75
2021/05/10 05:10:13;;;;;;;8.77;3.00;;;18.60;60.20;;;;;;4994098;28;20387;-75
2021/05/10 05:12:39;;;;;;;11.00;3.30;;;18.40;60.20;;;;;;4994807;28;20035;-73
2021/05/10 05:15:09;;;;;;;8.80;3.13;;;18.20;61.30;;;;;;4994875;28;20034;-69
2021/05/10 05:17:36;;;;;;;5.78;2.60;;;18.00;62.20;;;;;;4977546;28;20034;-74
2021/05/10 05:20:06;;;;;;;8.23;2.60;;;17.90;62.80;;;;;;4995117;28;20023;-75
2021/05/10 05:22:32;;;;;;;3.55;2.10;;;17.80;62.80;;;;;;4977310;28;20065;-75
2021/05/10 05:24:57;;;;;;;4.05;2.55;;;17.70;63.00;;;;;;4995120;28;20077;-75
2021/05/10 05:27:24;;;;;;;4.18;2.70;;;17.60;63.20;;;;;;4976494;28;20038;-76
2021/05/10 05:29:50;;;;;;;8.07;3.17;;;17.60;63.10;;;;;;4994604;28;20073;-75
2021/05/10 05:32:16;;;;;;;5.75;2.78;;;17.50;63.70;;;;;;4993769;28;20034;-75
2021/05/10 05:34:42;;;;;;;7.07;3.08;;;17.50;64.50;;;;;;4994761;28;20041;-75
2021/05/10 05:37:07;;;;;;;4.13;2.50;;;17.50;64.60;;;;;;4993795;28;20379;-69
2021/05/10 05:39:33;;;;;;;5.10;2.70;;;17.50;65.40;;;;;;4994272;28;20388;-73
2021/05/10 05:41:59;;;;;;;9.52;2.83;;;17.60;65.60;;;;;;4994672;28;20033;-73
2021/05/10 05:44:25;;;;;;;8.82;3.42;;;17.60;65.80;;;;;;4994070;28;20698;-73
2021/05/10 05:46:59;;;;;;;6.05;3.03;;;17.70;66.70;;;;;;4994838;28;20031;-74
2021/05/10 05:49:24;;;;;;;7.78;2.85;;;17.80;66.20;;;;;;4993735;28;20632;-73
2021/05/10 05:51:51;;;;;;;7.68;3.03;;;17.90;65.10;;;;;;4992163;28;20353;-71
2021/05/10 05:54:18;;;;;;;7.40;3.90;;;18.00;64.70;;;;;;4996180;28;20057;-72
2021/05/10 05:56:43;;;;;;;10.90;4.20;;;18.10;66.00;;;;;;4995414;28;20117;-76
2021/05/10 05:59:09;;;;;;;8.55;3.30;;;18.20;64.30;;;;;;4976047;28;20070;-71
2021/05/10 06:01:35;;;;;;;9.77;4.10;;;18.30;63.90;;;;;;4985065;28;20213;-75
2021/05/10 06:04:01;;;;;;;12.00;4.72;;;18.30;63.90;;;;;;4971027;28;20112;-73
2021/05/10 06:06:26;;;;;;;5.53;3.22;;;18.30;64.50;;;;;;4985870;28;20673;-72
2021/05/10 06:08:53;;;;;;;7.95;4.22;;;18.30;64.40;;;;;;4974602;28;20381;-72
2021/05/10 06:11:19;;;;;;;8.80;4.10;;;18.30;64.20;;;;;;4973511;28;20053;-73
2021/05/10 06:13:44;;;;;;;9.25;3.75;;;18.30;65.60;;;;;;4974213;28;20438;-73
2021/05/10 06:16:10;;;;;;;12.77;4.20;;;18.30;66.40;;;;;;4973303;28;20041;-73
2021/05/10 06:18:36;;;;;;;8.10;3.50;;;18.30;66.70;;;;;;4987834;28;20439;-71
2021/05/10 06:21:08;;;;;;;8.73;3.38;;;18.20;66.90;;;;;;4986387;28;20506;-71
2021/05/10 06:23:37;;;;;;;11.40;3.80;;;18.20;67.50;;;;;;4993377;28;20034;-72
2021/05/10 06:26:06;;;;;;;12.43;4.70;;;18.40;65.20;;;;;;4976204;28;20034;-71
2021/05/10 06:28:32;;;;;;;14.38;4.57;;;18.40;64.80;;;;;;4992635;28;20088;-71
2021/05/10 06:30:57;;;;;;;16.92;4.07;;;18.50;64.50;;;;;;4993600;28;20388;-71
2021/05/10 06:33:23;;;;;;;13.50;3.92;;;18.50;63.00;;;;;;4992623;28;20117;-71
2021/05/10 06:35:49;;;;;;;9.30;3.83;;;18.50;62.80;;;;;;4975741;28;20109;-72
2021/05/10 06:38:15;;;;;;;15.18;4.35;;;18.50;61.80;;;;;;4973353;28;20073;-78
2021/05/10 06:40:41;;;;;;;9.88;3.42;;;18.60;63.40;;;;;;4993400;28;20033;-73
2021/05/10 06:43:08;;;;;;;8.90;3.33;;;18.60;63.00;;;;;;4975306;28;20030;-74
2021/05/10 06:45:33;;;;;;;13.80;3.53;;;18.70;63.10;;;;;;4993265;28;20029;-75
2021/05/10 06:47:59;;;;;;;8.07;2.78;;;18.90;62.20;;;;;;4990685;28;20023;-74
2021/05/10 06:50:25;;;;;;;11.25;2.83;;;19.10;61.10;;;;;;4974630;28;20023;-76
2021/05/10 06:52:50;;;;;;;6.47;3.28;;;19.30;61.70;;;;;;4994364;28;20097;-78
2021/05/10 06:55:16;;;;;;;3.65;2.17;;;19.60;60.30;;;;;;5011677;28;20083;-76
2021/05/10 06:57:42;;;;;;;9.32;3.80;;;19.70;59.70;;;;;;5012538;28;20026;-76
2021/05/10 07:00:08;;;;;;;4.82;2.85;;;20.00;58.50;;;;;;5010974;28;20025;-70
2021/05/10 07:02:36;;;;;;;10.75;3.58;;;20.20;59.40;;;;;;5012387;28;20030;-75
2021/05/10 07:05:01;;;;;;;9.63;3.40;;;20.30;57.90;;;;;;4994927;28;20033;-76
2021/05/10 07:07:27;;;;;;;14.57;3.65;;;20.30;58.90;;;;;;4978803;28;20022;-77
2021/05/10 07:09:53;;;;;;;7.40;3.20;;;20.30;58.90;;;;;;4993158;28;20065;-78
2021/05/10 07:12:18;;;;;;;12.75;3.50;;;20.30;58.40;;;;;;4991726;28;20057;-78
2021/05/10 07:14:44;;;;;;;4.28;2.65;;;20.30;58.70;;;;;;5007075;28;20080;-76
2021/05/10 07:17:10;;;;;;;7.70;3.17;;;20.40;58.20;;;;;;4992687;28;20104;-70
2021/05/10 07:19:35;;;;;;;8.05;2.90;;;20.50;57.90;;;;;;5011946;28;20033;-77
2021/05/10 07:22:02;;;;;;;8.73;3.05;;;20.50;58.40;;;;;;5013053;28;20040;-76
2021/05/10 07:24:27;;;;;;;4.35;2.35;;;20.60;57.60;;;;;;4993947;28;20095;-77
2021/05/10 07:26:53;;;;;;;8.75;2.80;;;20.80;57.30;;;;;;5012204;28;20038;-77
2021/05/10 07:29:19;;;;;;;8.48;2.70;;;21.10;56.20;;;;;;5011324;28;20092;-76
2021/05/10 07:31:45;;;;;;;8.93;3.17;;;21.40;54.30;;;;;;5004291;28;20037;-75
2021/05/10 07:34:10;;;;;;;5.93;2.25;;;21.70;53.30;;;;;;5004256;28;20418;-76
2021/05/10 07:36:36;;;;;;;12.32;2.92;;;21.90;53.00;;;;;;5012453;28;20489;-77
2021/05/10 07:39:04;;;;;;;4.05;2.17;;;22.20;52.30;;;;;;5012593;28;20032;-76
2021/05/10 07:41:30;;;;;;;5.28;2.08;;;22.30;52.00;;;;;;4991260;28;20029;-76
2021/05/10 07:43:55;;;;;;;8.07;2.53;;;22.20;52.10;;;;;;5011511;28;20029;-76
2021/05/10 07:46:21;;;;;;;3.92;2.13;;;22.30;52.10;;;;;;5010808;28;20029;-77
2021/05/10 07:48:47;;;;;;;8.02;2.40;;;22.20;52.90;;;;;;5011364;28;20033;-77
2021/05/10 07:51:13;;;;;;;3.10;1.73;;;22.20;53.10;;;;;;5011054;28;20108;-70
2021/05/10 07:53:38;;;;;;;6.85;1.83;;;22.30;52.60;;;;;;5011612;28;20042;-76
2021/05/10 07:56:04;;;;;;;4.03;1.92;;;22.40;53.20;;;;;;4994359;28;20059;-72
2021/05/10 07:58:30;;;;;;;5.80;1.70;;;22.50;53.50;;;;;;5010896;28;20056;-76
2021/05/10 08:00:58;;;;;;;3.72;1.40;;;22.60;53.80;;;;;;5011626;28;20036;-77
2021/05/10 08:03:27;;;;;;;7.35;1.98;;;22.60;53.40;;;;;;4993483;28;20364;-74
2021/05/10 08:05:53;;;;;;;5.28;1.50;;;22.70;53.50;;;;;;5008948;28;20605;-75
2021/05/10 08:08:22;;;;;;;7.38;1.88;;;22.70;54.00;;;;;;4991540;28;20061;-77
2021/05/10 08:10:49;;;;;;;6.45;1.17;;;22.60;53.80;;;;;;4974686;28;20054;-77
2021/05/10 08:13:15;;;;;;;4.80;1.70;;;22.50;54.90;;;;;;4973970;28;20069;-76
2021/05/10 08:15:41;;;;;;;3.95;1.40;;;22.40;54.90;;;;;;4974564;28;20433;-77
2021/05/10 08:18:07;;;;;;;3.88;1.63;;;22.40;56.50;;;;;;4997099;28;20045;-76
2021/05/10 08:20:33;;;;;;;3.10;1.50;;;22.60;54.90;;;;;;5010957;28;20347;-75
2021/05/10 08:22:59;;;;;;;2.75;1.27;;;22.70;55.00;;;;;;5012882;28;20030;-77
2021/05/10 08:25:24;;;;;;;4.82;1.70;;;22.70;54.60;;;;;;4997164;28;20036;-76
2021/05/10 08:27:50;;;;;;;3.08;1.30;;;22.70;54.90;;;;;;5015685;28;20108;-77
2021/05/10 08:30:17;;;;;;;7.18;1.60;;;22.70;54.70;;;;;;5014283;28;20030;-75
2021/05/10 08:32:43;;;;;;;3.70;1.58;;;22.80;54.40;;;;;;5013303;28;20116;-75
2021/05/10 08:35:10;;;;;;;5.18;1.70;;;22.90;54.20;;;;;;4994600;28;20547;-76
2021/05/10 08:37:36;;;;;;;4.85;1.70;;;22.90;54.60;;;;;;5014784;28;20087;-76
2021/05/10 08:40:04;;;;;;;5.05;1.65;;;22.80;55.30;;;;;;4997059;28;20052;-77
2021/05/10 08:42:29;;;;;;;6.35;1.75;;;22.80;54.80;;;;;;5014446;28;20036;-76
2021/05/10 08:44:55;;;;;;;2.58;1.40;;;22.80;55.20;;;;;;5015036;28;20106;-76
2021/05/10 08:47:32;;;;;;;5.40;1.65;;;22.60;56.10;;;;;;5014259;28;20485;-77
2021/05/10 08:49:59;;;;;;;3.47;1.70;;;22.60;55.10;;;;;;5014667;28;20026;-76
2021/05/10 08:52:26;;;;;;;7.55;1.75;;;22.50;56.30;;;;;;5013687;28;20030;-76
2021/05/10 08:54:51;;;;;;;3.13;1.60;;;22.40;57.00;;;;;;5006926;28;21410;-76
2021/05/10 08:57:17;;;;;;;4.72;1.60;;;22.60;55.50;;;;;;4997225;28;20069;-75
2021/05/10 08:59:43;;;;;;;3.65;1.55;;;22.60;55.00;;;;;;5015627;28;20113;-75
2021/05/10 09:02:09;;;;;;;3.75;1.40;;;22.60;55.60;;;;;;5014695;28;20371;-75
2021/05/10 09:04:40;;;;;;;5.45;2.20;;;22.60;55.40;;;;;;4995642;28;20025;-76
2021/05/10 09:07:13;;;;;;;5.43;2.08;;;22.60;55.20;;;;;;5002062;28;20065;-77
2021/05/10 09:10:03;;;;;;;5.68;1.80;;;22.60;55.30;;;;;;4994320;28;20033;-77
2021/05/10 09:12:49;;;;;;;2.03;1.50;;;22.50;55.90;;;;;;4993839;28;20117;-77
2021/05/10 09:15:29;;;;;;;7.53;2.08;;;22.40;56.60;;;;;;4994266;28;20030;-69
2021/05/10 09:18:02;;;;;;;;;;;22.40;56.30;;;;;;4981576;28;20022;-77
2021/05/10 09:20:37;;;;;;;4.28;1.88;;;22.50;56.90;;;;;;5013595;28;19913;-76
2021/05/10 09:23:14;;;;;;;4.63;1.70;;;22.60;56.10;;;;;;5014958;28;20038;-79
2021/05/10 09:25:42;;;;;;;7.95;2.50;;;22.50;56.30;;;;;;4996844;28;20034;-79
2021/05/10 09:28:19;;;;;;;2.50;1.33;;;22.50;56.60;;;;;;5014772;28;20028;-78
2021/05/10 09:30:50;;;;;;;3.95;1.60;;;22.40;57.20;;;;;;4994067;28;20482;-78
2021/05/10 09:33:20;;;;;;;4.32;2.10;;;22.50;56.40;;;;;;4980012;28;20479;-71
2021/05/10 09:35:46;;;;;;;6.28;2.00;;;22.40;56.70;;;;;;5014179;28;20026;-78
2021/05/10 09:38:12;;;;;;;4.00;1.77;;;22.30;57.20;;;;;;5013637;28;20030;-78
2021/05/10 09:40:41;;;;;;;2.47;1.45;;;22.30;57.50;;;;;;5013122;28;20514;-78
2021/05/10 09:43:08;;;;;;;2.47;1.40;;;22.30;57.90;;;;;;5013691;28;20034;-77
2021/05/10 09:45:45;;;;;;;3.58;1.60;;;22.50;57.20;;;;;;5013385;28;20029;-79
2021/05/10 09:48:38;;;;;;;5.40;1.48;;;22.50;57.00;;;;;;5013845;28;20482;-78
2021/05/10 09:51:11;;;;;;;5.93;1.60;;;22.80;56.80;;;;;;5010613;28;20091;-78
2021/05/10 09:53:57;;;;;;;2.80;1.13;;;22.90;55.80;;;;;;5012843;28;20119;-80
2021/05/10 09:56:32;;;;;;;5.18;1.40;;;23.00;56.00;;;;;;5013298;28;20026;-77
2021/05/10 09:59:00;;;;;;;2.95;1.33;;;23.20;55.40;;;;;;5013816;28;20375;-79
2021/05/10 10:01:43;;;;;;;2.30;1.20;;;23.40;54.00;;;;;;4995005;28;20080;-79
2021/05/10 10:04:09;;;;;;;4.72;1.23;;;23.30;54.30;;;;;;5013671;28;20038;-78
2021/05/10 10:06:34;;;;;;;5.57;1.20;;;23.20;54.10;;;;;;5003716;28;20468;-77
2021/05/10 10:09:00;;;;;;;3.40;0.93;;;23.30;54.20;;;;;;4976800;28;20532;-77
2021/05/10 10:11:27;;;;;;;4.25;1.00;;;23.40;53.60;;;;;;4976538;28;20030;-77
2021/05/10 10:13:55;;;;;;;10.32;1.20;;;23.30;52.40;;;;;;4993675;28;20109;-76
2021/05/10 10:16:23;;;;;;;1.00;0.70;;;23.10;52.50;;;;;;4975592;28;20049;-76
2021/05/10 10:18:49;;;;;;;1.67;1.00;;;22.90;52.70;;;;;;5004318;28;20029;-78
2021/05/10 10:21:17;;;;;;;1.13;0.60;;;22.80;53.60;;;;;;5013322;28;20029;-77
2021/05/10 10:23:47;;;;;;;2.95;0.88;;;22.60;53.30;;;;;;4989497;28;20172;-77
2021/05/10 10:26:16;;;;;;;;;;;22.50;53.20;;;;;;4991595;28;20041;-79
2021/05/10 10:28:49;;;;;;;3.35;0.77;;;22.50;53.30;;;;;;4994995;28;19912;-77
2021/05/10 10:31:31;;;;;;;0.88;0.52;;;22.30;53.80;;;;;;5012995;28;20033;-77
2021/05/10 10:34:28;;;;;;;3.47;1.20;;;22.00;54.50;;;;;;5013095;28;20577;-78
2021/05/10 10:36:59;;;;;;;5.68;0.88;;;22.00;55.20;;;;;;5012582;28;20026;-76
2021/05/10 10:39:32;;;;;;;0.73;0.57;;;22.20;54.40;;;;;;4994755;28;20030;-78
2021/05/10 10:42:09;;;;;;;3.78;1.00;;;22.20;54.80;;;;;;5012614;28;20037;-77
2021/05/10 10:44:52;;;;;;;2.92;0.73;;;22.20;54.50;;;;;;5010324;28;20026;-78
2021/05/10 10:47:43;;;;;;;3.00;0.68;;;22.30;54.70;;;;;;5012483;28;20034;-68
2021/05/10 10:50:13;;;;;;;1.50;0.77;;;22.40;55.00;;;;;;4993108;28;20026;-75
2021/05/10 10:52:59;;;;;;;2.38;1.00;;;22.50;54.60;;;;;;4989368;28;20093;-77
2021/05/10 10:55:30;;;;;;;1.38;0.63;;;22.30;54.80;;;;;;4989556;28;20080;-76
2021/05/10 10:58:18;;;;;;;4.22;0.90;;;22.30;55.10;;;;;;4992315;28;20037;-77
2021/05/10 11:00:56;;;;;;;1.15;0.80;;;22.00;56.00;;;;;;4992453;28;20027;-78
2021/05/10 11:03:26;;;;;;;4.63;0.80;;;21.80;56.30;;;;;;4975655;28;20435;-71
2021/05/10 11:05:52;;;;;;;1.00;0.88;;;21.90;56.90;;;;;;4995553;28;20106;-78
2021/05/10 11:08:49;;;;;;;3.28;0.82;;;22.10;56.40;;;;;;5011912;28;20125;-71
2021/05/10 11:11:26;;;;;;;1.40;0.77;;;22.20;55.80;;;;;;5012274;28;20026;-77
2021/05/10 11:13:52;;;;;;;3.80;1.00;;;22.10;55.50;;;;;;5012342;28;20033;-77
2021/05/10 11:16:37;;;;;;;6.63;1.10;;;21.90;57.00;;;;;;5012300;28;20460;-71
2021/05/10 11:19:05;;;;;;;1.77;0.82;;;21.70;57.50;;;;;;4991035;28;20399;-77
2021/05/10 11:21:31;;;;;;;2.28;0.70;;;21.60;58.80;;;;;;5011342;28;20127;-77
2021/05/10 11:24:05;;;;;;;2.20;1.17;;;21.60;58.40;;;;;;5012263;28;20125;-79
2021/05/10 11:26:55;;;;;;;5.10;1.33;;;21.60;58.30;;;;;;4993589;28;20033;-79
2021/05/10 11:29:24;;;;;;;;;;;21.60;58.00;;;;;;4994310;28;20116;-72
2021/05/10 11:31:50;;;;;;;3.53;0.90;;;21.50;58.30;;;;;;5012412;28;19917;-78
2021/05/10 11:34:35;;;;;;;5.05;1.10;;;21.40;58.70;;;;;;4998103;28;20037;-79
2021/05/10 11:37:01;;;;;;;4.93;0.80;;;21.40;57.70;;;;;;5017477;28;20030;-78
2021/05/10 11:39:29;;;;;;;3.03;0.40;;;21.40;58.50;;;;;;5011065;28;20680;-78
2021/05/10 11:42:06;;;;;;;1.10;0.57;;;21.40;57.10;;;;;;5012418;28;20022;-78
2021/05/10 11:44:38;;;;;;;1.50;0.80;;;21.40;56.80;;;;;;5011348;28;20035;-77
2021/05/10 11:47:08;;;;;;;0.70;0.40;;;21.30;58.00;;;;;;5011561;28;20030;-79
2021/05/10 11:49:37;;;;;;;;;;;21.30;57.00;;;;;;4976213;28;20391;-79
2021/05/10 11:52:14;;;;;;;1.48;0.50;;;21.30;56.20;;;;;;4991657;28;20585;-79
2021/05/10 11:54:52;;;;;;;1.25;0.50;;;21.20;55.90;;;;;;4974845;28;20125;-79
2021/05/10 11:57:36;;;;;;;2.20;0.50;;;21.10;55.20;;;;;;4972390;28;20035;-77
2021/05/10 12:02:41;;;;;;;0.88;0.52;;;21.10;55.90;;;;;;4976376;28;20121;-77
2021/05/10 12:05:13;;;;;;;0.63;0.50;;;21.00;55.70;;;;;;4975984;28;20027;-79
2021/05/10 12:07:39;;;;;;;1.25;0.40;;;21.00;56.30;;;;;;4958513;28;20041;-79
2021/05/10 12:10:09;;;;;;;2.17;0.63;;;21.00;55.80;;;;;;4977416;28;20027;-78
2021/05/10 12:12:38;;;;;;;;;;;21.00;56.30;;;;;;4986132;28;20026;-79
2021/05/10 12:15:17;;;;;;;2.78;0.88;;;20.90;56.50;;;;;;4995975;28;19913;-78
2021/05/10 12:17:52;;;;;;;3.60;0.68;;;20.90;56.90;;;;;;4995428;28;20045;-78
2021/05/10 12:20:23;;;;;;;2.42;0.70;;;20.80;57.10;;;;;;4996159;28;20034;-78
2021/05/10 12:22:59;;;;;;;2.15;0.38;;;20.70;57.10;;;;;;4978485;28;20434;-78
2021/05/10 12:25:32;;;;;;;1.05;0.50;;;20.60;57.50;;;;;;4995400;28;20033;-77
2021/05/10 12:28:08;;;;;;;0.90;0.60;;;20.70;56.70;;;;;;4996072;28;20030;-78
2021/05/10 12:30:46;;;;;;;0.80;0.40;;;20.50;56.40;;;;;;4995739;28;20038;-75
2021/05/10 12:33:26;;;;;;;1.05;0.55;;;20.30;57.20;;;;;;4996389;28;20031;-78
2021/05/10 12:35:53;;;;;;;0.80;0.30;;;20.20;57.10;;;;;;4958692;28;20045;-79
2021/05/10 12:38:25;;;;;;;0.40;0.30;;;20.20;56.60;;;;;;4976084;28;20019;-71
2021/05/10 12:40:52;;;;;;;2.28;0.40;;;20.20;56.00;;;;;;4958874;28;20106;-78
2021/05/10 12:43:20;;;;;;;1.23;0.60;;;20.10;56.30;;;;;;4975905;28;20118;-79
2021/05/10 12:45:56;;;;;;;0.73;0.30;;;20.10;56.20;;;;;;4975515;28;20027;-79
2021/05/10 12:48:23;;;;;;;1.73;0.40;;;20.10;55.80;;;;;;4957887;28;20046;-71
2021/05/10 12:50:53;;;;;;;0.43;0.30;;;20.10;55.50;;;;;;4976123;28;20515;-74
2021/05/10 12:53:32;;;;;;;0.30;0.30;;;20.00;56.40;;;;;;4981146;28;20060;-73
2021/05/10 12:56:03;;;;;;;1.85;0.50;;;20.10;56.60;;;;;;4978379;28;20038;-76
2021/05/10 12:58:36;;;;;;;1.45;0.30;;;20.30;55.70;;;;;;4995040;28;20037;-76
2021/05/10 13:01:24;;;;;;;0.57;0.30;;;20.50;55.70;;;;;;4996247;28;20019;-76
2021/05/10 13:04:00;;;;;;;3.00;0.40;;;20.50;55.70;;;;;;4995300;28;20037;-77